Time;durP1;ratioP1;P1;durP2;ratioP2;P2;SDS_P1;SDS_P2;PMS_P1;PMS_P2;Temp;Humidity;BMP_temperature;BMP_pressure;BME280_temperature;BME280_humidity;BME280_pressure;Samples;Min_cycle;Max_cycle;Signal;HPM_P1;HPM_P2
2023/05/10 00:03:04;;;;;;;2.53;0.88;;;;;;;13.81;69.60;99142.41;10403441;28;20068;-61
2023/05/10 00:08:06;;;;;;;4.90;0.85;;;;;;;13.73;69.93;99143.09;10409163;28;20407;-61
2023/05/10 00:13:08;;;;;;;2.05;0.90;;;;;;;13.68;70.03;99147.88;10411855;28;20217;-61
2023/05/10 00:18:10;;;;;;;0.77;0.77;;;;;;;13.64;69.68;99146.47;10442658;28;20049;-62
2023/05/10 00:23:12;;;;;;;0.70;0.70;;;;;;;13.78;69.73;99148.75;10415722;28;20041;-61
2023/05/10 00:28:14;;;;;;;2.40;0.80;;;;;;;13.86;69.58;99145.50;10441916;28;20383;-61
2023/05/10 00:33:16;;;;;;;1.58;0.77;;;;;;;13.90;69.24;99146.91;10408050;28;20100;-61
2023/05/10 00:38:18;;;;;;;2.72;0.70;;;;;;;13.93;69.50;99151.88;10429835;28;20429;-61
2023/05/10 00:43:20;;;;;;;0.70;0.70;;;;;;;13.94;69.20;99143.06;10409164;28;20049;-62
2023/05/10 00:48:22;;;;;;;0.98;0.80;;;;;;;13.84;69.03;99147.44;10429942;28;20053;-61
2023/05/10 00:53:24;;;;;;;2.28;0.80;;;;;;;13.86;69.16;99151.56;10409813;28;20128;-61
2023/05/10 00:58:28;;;;;;;3.20;0.80;;;;;;;13.81;69.15;99148.50;10405981;28;20136;-62
2023/05/10 01:03:31;;;;;;;3.80;1.00;;;;;;;13.85;69.35;99154.34;10409985;28;20061;-61
2023/05/10 01:08:33;;;;;;;3.83;0.73;;;;;;;13.74;69.31;99147.34;10410076;28;20103;-61
2023/05/10 01:13:40;;;;;;;2.42;0.85;;;;;;;13.61;69.26;99152.00;10408696;28;20398;-61
2023/05/10 01:18:44;;;;;;;1.73;0.90;;;;;;;13.56;69.32;99148.91;10417372;28;20057;-61
2023/05/10 01:24:12;;;;;;;0.80;0.60;;;;;;;13.42;69.34;99151.84;10447670;28;20118;-61
2023/05/10 01:29:26;;;;;;;2.67;0.85;;;;;;;13.53;69.55;99159.69;10391506;28;20381;-61
2023/05/10 01:34:37;;;;;;;1.67;0.73;;;;;;;13.48;69.55;99159.25;10410940;28;20049;-61
2023/05/10 01:39:47;;;;;;;1.92;0.63;;;;;;;13.44;69.56;99166.56;10413008;28;20536;-61
2023/05/10 01:45:10;;;;;;;1.52;1.00;;;;;;;13.44;69.63;99165.72;10403568;28;20049;-61
2023/05/10 01:50:26;;;;;;;3.17;1.00;;;;;;;13.46;69.41;99166.41;10404368;28;20132;-61
2023/05/10 01:55:32;;;;;;;1.63;1.08;;;;;;;13.40;69.32;99162.47;10402970;28;20053;-62
2023/05/10 02:00:34;;;;;;;4.15;1.00;;;;;;;13.48;69.44;99160.06;10405981;28;20033;-62
2023/05/10 02:05:38;;;;;;;2.33;0.80;;;;;;;13.44;69.34;99174.44;10413367;28;20493;-61
2023/05/10 02:10:44;;;;;;;1.73;0.80;;;;;;;13.47;69.55;99170.72;10428852;28;20129;-61
2023/05/10 02:15:51;;;;;;;1.63;0.90;;;;;;;13.44;69.54;99177.06;10415488;28;20044;-61
2023/05/10 02:20:55;;;;;;;1.85;0.90;;;;;;;13.48;69.31;99186.34;10414494;28;20087;-61
2023/05/10 02:25:59;;;;;;;5.13;1.00;;;;;;;13.44;69.25;99190.19;10456319;28;20036;-61
2023/05/10 02:31:01;;;;;;;1.00;0.90;;;;;;;13.40;69.43;99194.00;10450161;28;20124;-61
2023/05/10 02:36:03;;;;;;;1.77;0.90;;;;;;;13.36;69.43;99208.34;10412418;28;20481;-61
2023/05/10 02:41:08;;;;;;;3.95;1.30;;;;;;;13.36;69.29;99192.59;10413752;28;20046;-61
2023/05/10 02:46:10;;;;;;;1.10;0.98;;;;;;;13.36;69.18;99199.63;10411270;28;20064;-61
2023/05/10 02:51:17;;;;;;;4.07;1.23;;;;;;;13.36;69.32;99197.00;10428924;28;20136;-61
2023/05/10 02:56:31;;;;;;;3.95;1.10;;;;;;;13.30;69.22;99190.47;10429235;28;20465;-61
2023/05/10 03:01:33;;;;;;;1.35;0.93;;;;;;;13.39;69.12;99194.94;10409867;28;20121;-61
2023/05/10 03:06:35;;;;;;;3.30;1.15;;;;;;;13.36;68.98;99192.59;10408968;28;20041;-61
2023/05/10 03:12:00;;;;;;;2.58;1.30;;;;;;;13.37;68.82;99204.75;10438602;28;20075;-61
2023/05/10 03:17:14;;;;;;;5.22;1.40;;;;;;;13.30;69.43;99200.97;10443397;28;20504;-61
2023/05/10 03:22:50;;;;;;;3.53;1.30;;;;;;;13.26;69.65;99207.44;10420946;28;20042;-62
2023/05/10 03:27:52;;;;;;;2.35;1.23;;;;;;;13.35;69.53;99205.84;10397365;28;20120;-61
2023/05/10 03:32:54;;;;;;;2.90;1.30;;;;;;;13.43;69.10;99213.97;10427844;28;20041;-61
2023/05/10 03:37:56;;;;;;;4.82;1.40;;;;;;;13.41;69.08;99219.28;10427924;28;20413;-61
2023/05/10 03:42:59;;;;;;;4.18;1.52;;;;;;;13.43;69.24;99217.41;10404583;28;20065;-61
2023/05/10 03:48:01;;;;;;;4.65;1.60;;;;;;;13.55;68.99;99215.56;10427967;28;20075;-61
2023/05/10 03:53:03;;;;;;;2.83;1.60;;;;;;;13.70;68.82;99216.91;10425058;28;20482;-61
2023/05/10 03:58:05;;;;;;;8.90;1.80;;;;;;;13.62;68.53;99216.72;10422553;28;20130;-61
2023/05/10 04:03:07;;;;;;;3.33;1.80;;;;;;;13.48;69.32;99225.75;10444575;28;20044;-62
2023/05/10 04:08:09;;;;;;;6.93;1.60;;;;;;;13.59;69.15;99240.63;10408943;28;20049;-61
2023/05/10 04:13:11;;;;;;;5.80;1.70;;;;;;;13.64;68.98;99234.03;10403672;28;20075;-62
2023/05/10 04:18:13;;;;;;;2.80;1.67;;;;;;;13.74;69.09;99229.66;10418776;28;20050;-61
2023/05/10 04:23:16;;;;;;;3.65;1.67;;;;;;;13.70;69.09;99230.03;10402551;28;20394;-61
2023/05/10 04:28:18;;;;;;;6.82;1.83;;;;;;;13.71;69.49;99226.47;10402959;28;20073;-61
2023/05/10 04:33:20;;;;;;;4.13;1.50;;;;;;;13.69;69.33;99229.22;10429870;28;20136;-61
2023/05/10 04:38:21;;;;;;;4.63;1.58;;;;;;;13.65;69.10;99238.34;10442300;28;20053;-61
2023/05/10 04:43:23;;;;;;;3.00;1.60;;;;;;;13.69;69.20;99233.66;10414630;28;20037;-61
2023/05/10 04:48:25;;;;;;;2.85;1.52;;;;;;;13.70;69.36;99240.56;10405678;28;20493;-62
2023/05/10 04:53:29;;;;;;;4.03;1.45;;;;;;;13.67;69.04;99246.09;10444570;28;20489;-61
2023/05/10 04:58:31;;;;;;;5.07;1.60;;;;;;;13.65;69.09;99250.63;10415000;28;20107;-61
2023/05/10 05:03:33;;;;;;;5.72;1.83;;;;;;;13.71;68.85;99265.88;10409241;28;20481;-62
2023/05/10 05:08:35;;;;;;;6.50;1.90;;;;;;;13.71;69.07;99260.63;10431834;28;20071;-62
2023/05/10 05:13:37;;;;;;;10.18;3.10;;;;;;;13.74;69.02;99269.09;10452137;28;20746;-62
2023/05/10 05:18:39;;;;;;;4.93;2.30;;;;;;;13.61;69.13;99280.75;10426319;28;20039;-61
2023/05/10 05:23:41;;;;;;;4.78;2.35;;;;;;;13.70;69.18;99282.59;10443517;28;20095;-61
2023/05/10 05:28:43;;;;;;;3.88;2.20;;;;;;;13.72;69.42;99292.03;10441757;28;20085;-61
2023/05/10 05:33:45;;;;;;;2.70;1.80;;;;;;;13.75;69.08;99285.69;10408157;28;20136;-62
2023/05/10 05:38:47;;;;;;;6.72;2.65;;;;;;;13.73;69.18;99288.47;10407558;28;20129;-62
2023/05/10 05:43:49;;;;;;;4.78;2.40;;;;;;;13.68;69.48;99295.03;10410296;28;20033;-62
2023/05/10 05:48:51;;;;;;;5.53;2.28;;;;;;;13.79;69.33;99292.38;10440153;28;20046;-61
2023/05/10 05:53:53;;;;;;;5.03;2.22;;;;;;;13.97;68.82;99289.97;10417278;28;20045;-61
2023/05/10 05:58:55;;;;;;;4.55;2.50;;;;;;;14.09;68.58;99299.47;10413292;28;20052;-61
2023/05/10 06:03:56;;;;;;;4.78;2.28;;;;;;;14.17;68.27;99297.88;10406547;28;20041;-62
2023/05/10 06:08:58;;;;;;;5.93;2.00;;;;;;;14.25;67.72;99305.94;10414383;28;20040;-61
2023/05/10 06:14:01;;;;;;;7.28;2.30;;;;;;;14.29;67.92;99298.63;10406191;28;20060;-62
2023/05/10 06:19:03;;;;;;;4.03;1.95;;;;;;;14.59;67.17;99299.50;10406971;28;20071;-61
2023/05/10 06:24:06;;;;;;;8.25;2.20;;;;;;;15.23;66.14;99301.78;10406090;28;20077;-61
2023/05/10 06:29:08;;;;;;;3.55;1.95;;;;;;;15.53;64.73;99301.69;10405647;28;20084;-60
2023/05/10 06:34:11;;;;;;;4.63;2.40;;;;;;;16.09;63.99;99309.72;10413876;28;20069;-61
2023/05/10 06:39:13;;;;;;;6.15;1.95;;;;;;;16.53;62.49;99303.00;10448321;28;20057;-61
2023/05/10 06:44:15;;;;;;;9.05;2.00;;;;;;;16.29;62.34;99318.44;10448289;28;20069;-61
2023/05/10 06:49:17;;;;;;;5.03;2.20;;;;;;;16.63;62.09;99323.09;10434515;28;20043;-61
2023/05/10 06:54:19;;;;;;;4.10;1.83;;;;;;;16.43;62.06;99320.59;10447793;28;20048;-61
2023/05/10 06:59:21;;;;;;;4.05;1.88;;;;;;;16.13;62.42;99326.94;10406940;28;20107;-61
2023/05/10 07:04:23;;;;;;;4.28;1.80;;;;;;;15.87;62.98;99334.59;10402685;28;20092;-61
2023/05/10 07:09:25;;;;;;;5.80;2.25;;;;;;;15.71;63.59;99336.97;10396672;28;20049;-62
2023/05/10 07:14:27;;;;;;;3.63;1.80;;;;;;;15.78;63.73;99347.78;10412255;28;20049;-61
2023/05/10 07:19:29;;;;;;;7.50;2.10;;;;;;;15.87;63.38;99350.44;10398853;28;20285;-62
2023/05/10 07:24:33;;;;;;;6.35;1.98;;;;;;;16.03;62.76;99347.22;10388812;28;20071;-61
2023/05/10 07:29:36;;;;;;;5.18;2.20;;;;;;;16.18;62.11;99349.28;10381560;28;20583;-61
2023/05/10 07:34:37;;;;;;;5.68;2.20;;;;;;;16.32;61.54;99348.03;10394372;28;20555;-61
2023/05/10 07:39:39;;;;;;;4.75;2.25;;;;;;;16.47;61.54;99351.09;10391556;28;20560;-61
2023/05/10 07:44:41;;;;;;;4.68;2.40;;;;;;;16.62;61.55;99363.69;10420658;28;20128;-63
2023/05/10 07:49:43;;;;;;;5.15;2.30;;;;;;;17.03;60.52;99362.41;10440951;28;20164;-62
2023/05/10 07:54:45;;;;;;;7.85;3.13;;;;;;;17.34;59.21;99368.28;10402198;28;20141;-63
2023/05/10 07:59:47;;;;;;;5.68;3.03;;;;;;;17.40;58.81;99368.50;10402733;28;20423;-63
2023/05/10 08:04:49;;;;;;;6.40;2.85;;;;;;;17.09;58.67;99380.31;10411530;28;20582;-63
2023/05/10 08:09:51;;;;;;;4.70;2.08;;;;;;;17.14;59.63;99383.34;10403977;28;20069;-63
2023/05/10 08:14:53;;;;;;;3.92;2.10;;;;;;;17.39;58.78;99377.41;10404457;28;20124;-63
2023/05/10 08:19:54;;;;;;;5.45;2.30;;;;;;;17.24;58.72;99378.84;10404744;28;20132;-63
2023/05/10 08:24:56;;;;;;;4.82;2.17;;;;;;;17.61;57.42;99384.91;10402544;28;20079;-63
2023/05/10 08:29:58;;;;;;;6.22;2.20;;;;;;;17.55;57.83;99388.16;10406469;28;20057;-63
2023/05/10 08:35:00;;;;;;;6.10;2.22;;;;;;;17.72;57.74;99378.59;10412900;28;20511;-62
2023/05/10 08:40:02;;;;;;;6.07;1.95;;;;;;;18.28;56.92;99379.13;10409584;28;20045;-63
2023/05/10 08:45:06;;;;;;;8.18;2.67;;;;;;;18.42;56.08;99383.06;10409647;28;20065;-62
2023/05/10 08:50:10;;;;;;;5.85;2.58;;;;;;;18.70;55.53;99381.91;10411826;28;20069;-63
2023/05/10 08:55:11;;;;;;;7.53;2.20;;;;;;;19.56;54.66;99380.00;10410258;28;20441;-63
2023/05/10 09:00:14;;;;;;;4.35;2.15;;;;;;;20.27;52.35;99381.13;10409019;28;20041;-63
2023/05/10 09:05:17;;;;;;;6.47;2.13;;;;;;;20.10;51.81;99384.75;10411758;28;20529;-63
2023/05/10 09:10:21;;;;;;;4.95;1.83;;;;;;;19.86;51.56;99400.66;10385310;28;20049;-63
2023/05/10 09:15:23;;;;;;;5.28;2.15;;;;;;;19.68;52.13;99405.22;10384852;28;20081;-63
2023/05/10 09:20:25;;;;;;;3.83;1.70;;;;;;;19.81;50.66;99397.63;10398597;28;20571;-63
2023/05/10 09:25:27;;;;;;;4.90;1.63;;;;;;;20.08;51.58;99386.75;10410914;28;20050;-63
2023/05/10 09:30:30;;;;;;;4.43;1.65;;;;;;;20.10;50.47;99396.22;10408033;28;20120;-63
2023/05/10 09:35:33;;;;;;;4.75;1.52;;;;;;;20.51;49.23;99396.19;10409074;28;20095;-63
2023/05/10 09:40:35;;;;;;;7.80;1.55;;;;;;;20.02;49.83;99408.63;10407321;28;20176;-63
2023/05/10 09:45:38;;;;;;;6.00;1.75;;;;;;;19.26;50.50;99414.03;10401063;28;20056;-63
2023/05/10 09:50:40;;;;;;;7.40;1.60;;;;;;;18.77;51.97;99413.91;10400843;28;20041;-63
2023/05/10 09:55:44;;;;;;;2.30;1.10;;;;;;;18.87;49.87;99410.16;10426440;28;20145;-63
2023/05/10 10:00:51;;;;;;;1.33;0.90;;;;;;;18.91;49.61;99422.09;10427605;28;20045;-63
2023/05/10 10:05:55;;;;;;;3.60;1.30;;;;;;;19.63;49.25;99418.97;10410420;28;20084;-63
2023/05/10 10:10:57;;;;;;;3.60;1.00;;;;;;;19.92;48.07;99415.94;10401751;28;20136;-63
2023/05/10 10:15:59;;;;;;;4.43;1.20;;;;;;;20.32;47.34;99415.97;10404374;28;20526;-63
2023/05/10 10:21:02;;;;;;;3.15;1.20;;;;;;;20.42;47.35;99421.13;10398088;28;20041;-64
2023/05/10 10:26:04;;;;;;;7.20;1.15;;;;;;;20.73;46.79;99419.44;10398096;28;20041;-63
2023/05/10 10:31:38;;;;;;;2.67;1.02;;;;;;;20.27;46.43;99424.41;10396939;28;20057;-63
2023/05/10 10:36:44;;;;;;;5.40;1.10;;;;;;;20.29;47.76;99426.94;10369530;28;20067;-63
2023/05/10 10:41:50;;;;;;;3.65;1.13;;;;;;;20.16;46.63;99439.84;10385216;28;20052;-63
2023/05/10 10:47:11;;;;;;;4.55;0.90;;;;;;;19.78;46.83;99441.25;10397299;28;20128;-63
2023/05/10 10:52:15;;;;;;;2.50;1.10;;;;;;;19.65;47.64;99440.88;10410435;28;20226;-63
2023/05/10 10:57:19;;;;;;;1.23;0.90;;;;;;;19.56;48.12;99438.34;10422479;28;20049;-64
2023/05/10 11:02:58;;;;;;;3.50;1.00;;;;;;;19.37;47.74;99442.94;10396473;28;20076;-63
2023/05/10 11:08:06;;;;;;;8.57;1.30;;;;;;;19.60;48.11;99442.34;10378744;28;20103;-63
2023/05/10 11:13:09;;;;;;;2.05;0.85;;;;;;;19.99;47.18;99440.84;10409233;28;20272;-63
2023/05/10 11:18:24;;;;;;;2.03;0.90;;;;;;;19.95;46.42;99439.50;10397173;28;20045;-63
2023/05/10 11:23:40;;;;;;;5.65;1.10;;;;;;;20.04;46.01;99431.38;10399500;28;20056;-63
2023/05/10 11:28:43;;;;;;;1.92;0.90;;;;;;;20.34;45.97;99432.56;10405841;28;20068;-63
2023/05/10 11:33:50;;;;;;;2.85;0.88;;;;;;;20.64;45.00;99434.56;10413127;28;20037;-62
2023/05/10 11:38:53;;;;;;;1.77;0.68;;;;;;;20.71;44.47;99429.41;10417915;28;20045;-63
2023/05/10 11:43:56;;;;;;;3.85;0.90;;;;;;;20.94;43.67;99430.38;10401487;28;20043;-63
2023/05/10 11:49:06;;;;;;;3.45;0.80;;;;;;;20.72;43.38;99439.88;10417663;28;20075;-62
2023/05/10 11:54:10;;;;;;;1.08;0.80;;;;;;;20.85;43.83;99439.38;10396880;28;20430;-62
2023/05/10 11:59:14;;;;;;;1.33;0.70;;;;;;;20.82;43.39;99434.41;10404269;28;20041;-62
2023/05/10 12:04:16;;;;;;;2.63;0.80;;;;;;;20.64;44.04;99439.06;10396452;28;20106;-62
2023/05/10 12:09:18;;;;;;;1.95;0.70;;;;;;;20.89;43.92;99446.00;10416987;28;20053;-62
2023/05/10 12:14:40;;;;;;;2.50;0.73;;;;;;;21.15;43.77;99443.13;10385830;28;20040;-62
2023/05/10 12:19:43;;;;;;;3.33;0.80;;;;;;;21.22;42.68;99438.78;10389947;28;20136;-62
2023/05/10 12:24:45;;;;;;;2.17;0.70;;;;;;;21.43;42.39;99450.56;10410219;28;20049;-63
2023/05/10 12:29:48;;;;;;;3.60;0.88;;;;;;;21.42;41.97;99450.69;10387192;28;20064;-62
2023/05/10 12:34:53;;;;;;;2.60;0.70;;;;;;;21.39;41.45;99453.72;10394606;28;20512;-62
2023/05/10 12:39:55;;;;;;;2.50;0.70;;;;;;;21.48;41.88;99458.84;10394352;28;20511;-63
2023/05/10 12:44:57;;;;;;;2.13;0.60;;;;;;;21.57;41.09;99462.28;10386153;28;20045;-63
2023/05/10 12:50:00;;;;;;;0.88;0.75;;;;;;;20.91;41.35;99466.09;10397733;28;20163;-62
2023/05/10 12:55:02;;;;;;;4.82;0.88;;;;;;;20.83;41.98;99473.25;10401291;28;20068;-62
2023/05/10 13:00:05;;;;;;;1.27;0.80;;;;;;;20.49;42.79;99475.22;10403350;28;20073;-62
2023/05/10 13:05:07;;;;;;;2.80;0.80;;;;;;;20.18;43.30;99485.66;10401258;28;20494;-62
2023/05/10 13:10:10;;;;;;;3.50;0.80;;;;;;;19.82;43.83;99484.25;10402957;28;20065;-62
2023/05/10 13:15:12;;;;;;;5.47;1.02;;;;;;;19.48;44.13;99485.06;10401947;28;20128;-63
2023/05/10 13:20:14;;;;;;;2.05;0.77;;;;;;;19.26;44.62;99496.22;10408857;28;20052;-62
2023/05/10 13:25:17;;;;;;;3.17;0.80;;;;;;;19.12;45.40;99501.25;10408736;28;20421;-62
2023/05/10 13:30:18;;;;;;;2.08;0.90;;;;;;;19.17;45.96;99502.47;10410875;28;20041;-62
2023/05/10 13:35:20;;;;;;;3.30;0.88;;;;;;;19.52;45.69;99495.38;10408388;28;20406;-63
2023/05/10 13:40:22;;;;;;;2.42;0.90;;;;;;;19.26;45.40;99498.03;10410194;28;20084;-62
2023/05/10 13:45:24;;;;;;;1.73;0.90;;;;;;;18.91;46.17;99512.19;10407988;28;20045;-62
2023/05/10 13:50:26;;;;;;;2.30;0.93;;;;;;;18.78;46.36;99505.63;10409315;28;20526;-62
2023/05/10 13:55:28;;;;;;;1.90;1.10;;;;;;;18.92;47.71;99500.63;10407778;28;20049;-62
2023/05/10 14:00:30;;;;;;;2.67;0.95;;;;;;;18.87;47.38;99508.19;10428135;28;20053;-63
2023/05/10 14:05:32;;;;;;;3.13;0.90;;;;;;;19.04;47.41;99502.06;10399780;28;20416;-63
2023/05/10 14:10:34;;;;;;;3.17;0.90;;;;;;;19.08;47.17;99498.09;10403907;28;20446;-62
2023/05/10 14:15:36;;;;;;;3.00;1.00;;;;;;;19.16;47.02;99492.84;10400016;28;20042;-62
2023/05/10 14:20:38;;;;;;;3.17;1.00;;;;;;;19.17;46.94;99491.03;10401320;28;20049;-62
2023/05/10 14:25:40;;;;;;;1.75;0.95;;;;;;;19.14;47.17;99486.03;10433157;28;20037;-62
2023/05/10 14:30:42;;;;;;;1.65;0.95;;;;;;;19.38;47.72;99488.81;10401851;28;20518;-62
2023/05/10 14:35:45;;;;;;;2.05;1.00;;;;;;;19.69;46.86;99489.13;10400123;28;20069;-62
2023/05/10 14:40:46;;;;;;;4.28;0.90;;;;;;;19.85;46.49;99476.78;10427826;28;20052;-62
2023/05/10 14:45:48;;;;;;;2.88;1.00;;;;;;;19.94;46.45;99480.28;10401213;28;20045;-63
2023/05/10 14:50:52;;;;;;;5.57;0.95;;;;;;;19.75;45.89;99477.88;10402748;28;20087;-62
2023/05/10 14:55:54;;;;;;;1.38;0.65;;;;;;;19.46;46.18;99472.94;10397415;28;20500;-63
2023/05/10 15:00:56;;;;;;;0.85;0.82;;;;;;;19.25;46.02;99478.66;10438792;28;20044;-62
2023/05/10 15:05:58;;;;;;;3.90;0.90;;;;;;;19.12;45.76;99488.84;10409993;28;20052;-63
2023/05/10 15:11:00;;;;;;;0.90;0.60;;;;;;;18.95;46.18;99481.75;10428882;28;20125;-64
2023/05/10 15:16:02;;;;;;;1.92;0.95;;;;;;;19.08;46.35;99481.38;10397253;28;20042;-63
2023/05/10 15:21:04;;;;;;;3.25;1.00;;;;;;;19.09;45.90;99481.22;10391778;28;20053;-64
2023/05/10 15:26:06;;;;;;;16.23;2.38;;;;;;;19.27;46.24;99474.03;10394302;28;20040;-64
2023/05/10 15:31:08;;;;;;;140.43;7.05;;;;;;;19.56;45.59;99478.16;10431851;28;20037;-65
2023/05/10 15:36:11;;;;;;;9.57;1.13;;;;;;;19.55;45.76;99479.13;10391001;28;20049;-64
2023/05/10 15:41:13;;;;;;;9.52;1.30;;;;;;;19.38;46.02;99481.69;10418567;28;20044;-64
2023/05/10 15:46:14;;;;;;;32.38;2.72;;;;;;;19.37;46.02;99481.88;10412418;28;20686;-65
2023/05/10 15:51:18;;;;;;;6.72;1.30;;;;;;;19.43;45.30;99476.78;10404870;28;20495;-63
2023/05/10 15:56:20;;;;;;;11.45;1.33;;;;;;;19.39;46.32;99480.72;10391027;28;20041;-64
2023/05/10 16:01:22;;;;;;;15.25;1.48;;;;;;;19.33;46.20;99481.38;10441951;28;20128;-64
2023/05/10 16:06:24;;;;;;;31.20;3.45;;;;;;;19.53;45.79;99486.41;10399015;28;20081;-64
2023/05/10 16:11:27;;;;;;;18.67;1.70;;;;;;;19.53;46.62;99489.06;10391183;28;20409;-65
2023/05/10 16:16:29;;;;;;;4.55;1.67;;;;;;;19.70;45.01;99493.47;10415496;28;20056;-65
2023/05/10 16:21:31;;;;;;;6.97;1.85;;;;;;;19.53;45.76;99492.56;10394420;28;20072;-65
2023/05/10 16:26:39;;;;;;;3.08;1.30;;;;;;;19.42;45.72;99495.47;10388702;28;20070;-65
2023/05/10 16:31:41;;;;;;;4.00;1.20;;;;;;;19.19;45.38;99499.66;10408133;28;20608;-64
2023/05/10 16:36:43;;;;;;;7.30;1.70;;;;;;;18.95;46.56;99505.59;10412098;28;20071;-64
2023/05/10 16:41:45;;;;;;;2.15;1.20;;;;;;;18.79;47.12;99515.25;10394722;28;20141;-64
2023/05/10 16:46:47;;;;;;;3.88;1.00;;;;;;;19.10;46.78;99512.03;10387301;28;20434;-64
2023/05/10 16:51:49;;;;;;;6.63;1.10;;;;;;;19.12;46.27;99518.00;10395428;28;20037;-64
2023/05/10 16:56:51;;;;;;;6.45;1.00;;;;;;;19.11;46.76;99519.00;10402548;28;20041;-64
2023/05/10 17:01:53;;;;;;;2.35;0.98;;;;;;;19.19;46.40;99513.75;10406645;28;20072;-64
2023/05/10 17:06:55;;;;;;;2.78;0.98;;;;;;;18.94;46.64;99522.50;10393938;28;20146;-64
2023/05/10 17:11:57;;;;;;;4.03;0.98;;;;;;;18.66;47.78;99523.59;10399490;28;20132;-63
2023/05/10 17:16:59;;;;;;;3.17;0.90;;;;;;;18.35;48.46;99533.75;10406477;28;20140;-63
2023/05/10 17:22:01;;;;;;;8.73;1.30;;;;;;;18.12;49.16;99539.56;10397364;28;20044;-64
2023/05/10 17:27:03;;;;;;;2.58;0.95;;;;;;;17.95;48.70;99541.22;10402128;28;20131;-62
2023/05/10 17:32:05;;;;;;;1.35;0.90;;;;;;;17.95;49.12;99545.66;10405970;28;20084;-62
2023/05/10 17:37:08;;;;;;;1.52;1.10;;;;;;;17.86;49.31;99539.44;10401629;28;20136;-62
2023/05/10 17:42:11;;;;;;;1.80;1.10;;;;;;;17.89;48.50;99548.91;10401588;28;20504;-62
2023/05/10 17:47:13;;;;;;;2.75;1.17;;;;;;;17.69;48.89;99556.91;10388756;28;20042;-62
2023/05/10 17:52:14;;;;;;;2.33;1.17;;;;;;;17.61;48.97;99555.97;10388206;28;20061;-62
2023/05/10 17:57:17;;;;;;;4.38;1.30;;;;;;;17.34;50.12;99559.41;10397855;28;20081;-62
2023/05/10 18:02:19;;;;;;;1.58;1.10;;;;;;;16.99;51.10;99560.00;10405752;28;20087;-62
2023/05/10 18:07:22;;;;;;;2.60;1.30;;;;;;;16.84;51.01;99569.34;10400948;28;20038;-62
2023/05/10 18:12:24;;;;;;;2.55;1.13;;;;;;;16.79;51.73;99566.25;10400152;28;20127;-62
2023/05/10 18:17:26;;;;;;;4.55;1.40;;;;;;;16.70;52.30;99564.47;10400585;28;20052;-62
2023/05/10 18:22:28;;;;;;;2.53;1.40;;;;;;;16.59;52.73;99571.72;10396099;28;20041;-62
2023/05/10 18:27:30;;;;;;;2.85;1.65;;;;;;;16.48;53.08;99566.53;10390032;28;20037;-62
2023/05/10 18:32:32;;;;;;;2.17;1.50;;;;;;;16.31;53.68;99569.81;10396554;28;20497;-62
2023/05/10 18:37:35;;;;;;;2.45;1.40;;;;;;;16.21;53.14;99572.44;10438348;28;20052;-60
2023/05/10 18:42:37;;;;;;;4.97;1.60;;;;;;;16.03;54.21;99579.34;10413374;28;20128;-60
2023/05/10 18:47:39;;;;;;;4.72;1.90;;;;;;;15.85;56.18;99583.59;10418248;28;20029;-60
2023/05/10 18:52:42;;;;;;;3.25;1.83;;;;;;;15.93;57.68;99584.59;10435246;28;20448;-60
2023/05/10 18:57:44;;;;;;;2.85;1.48;;;;;;;16.02;57.77;99588.22;10395829;28;20111;-60
2023/05/10 19:02:46;;;;;;;3.35;1.58;;;;;;;15.90;56.96;99602.47;10412031;28;20155;-60
2023/05/10 19:07:48;;;;;;;3.65;1.80;;;;;;;15.45;58.18;99615.13;10403009;28;20077;-60
2023/05/10 19:12:50;;;;;;;4.18;1.63;;;;;;;15.02;59.74;99611.81;10400139;28;20121;-60
2023/05/10 19:17:51;;;;;;;3.25;1.60;;;;;;;14.87;60.08;99618.31;10384098;28;20732;-60
2023/05/10 19:22:53;;;;;;;3.33;1.60;;;;;;;14.91;60.31;99622.38;10391101;28;20048;-61
2023/05/10 19:28:10;;;;;;;5.07;1.80;;;;;;;14.94;60.34;99630.03;10390704;28;20041;-60
2023/05/10 19:33:13;;;;;;;4.45;1.95;;;;;;;14.96;61.03;99634.19;10399783;28;20049;-61
2023/05/10 19:38:15;;;;;;;4.93;1.70;;;;;;;14.83;61.40;99630.06;10394736;28;20060;-60
2023/05/10 19:43:16;;;;;;;3.88;1.63;;;;;;;14.62;61.29;99616.00;10403163;28;20045;-60
2023/05/10 19:48:18;;;;;;;6.80;1.90;;;;;;;14.41;62.99;99615.94;10444590;28;20041;-60
2023/05/10 19:53:20;;;;;;;4.75;2.20;;;;;;;14.62;63.69;99630.00;10437984;28;20083;-60
2023/05/10 19:58:22;;;;;;;4.63;2.10;;;;;;;14.84;63.95;99637.03;10437880;28;20136;-60
2023/05/10 20:03:24;;;;;;;3.97;2.00;;;;;;;14.92;63.75;99639.84;10388854;28;20064;-60
2023/05/10 20:08:26;;;;;;;8.18;2.38;;;;;;;14.87;64.25;99644.66;10439360;28;20037;-60
2023/05/10 20:13:28;;;;;;;7.18;2.60;;;;;;;14.90;64.53;99645.22;10393803;28;20049;-60
2023/05/10 20:18:32;;;;;;;7.07;2.30;;;;;;;14.94;64.60;99637.94;10400403;28;20052;-61
2023/05/10 20:23:36;;;;;;;5.03;2.60;;;;;;;14.93;64.54;99652.03;10403236;28;20214;-60
2023/05/10 20:28:37;;;;;;;5.82;2.30;;;;;;;14.94;64.55;99645.84;10405803;28;20108;-60
2023/05/10 20:33:39;;;;;;;7.75;2.88;;;;;;;14.94;64.94;99651.09;10422463;28;20144;-60
2023/05/10 20:38:41;;;;;;;6.35;2.75;;;;;;;14.91;64.67;99651.34;10449458;28;20412;-60
2023/05/10 20:43:43;;;;;;;4.65;2.53;;;;;;;14.82;64.83;99652.91;10425133;28;20469;-61
2023/05/10 20:48:44;;;;;;;7.45;2.97;;;;;;;14.70;64.91;99647.81;10440299;28;20129;-60
2023/05/10 20:53:46;;;;;;;4.53;2.50;;;;;;;14.54;65.08;99649.06;10429707;28;20091;-61
2023/05/10 20:58:48;;;;;;;7.03;2.38;;;;;;;14.31;65.17;99646.53;10425333;28;20078;-61
2023/05/10 21:03:50;;;;;;;351.40;12.05;;;;;;;13.93;64.95;99646.94;10439934;28;20085;-61
2023/05/10 21:08:52;;;;;;;7.70;2.53;;;;;;;13.69;66.17;99646.22;10452163;28;20527;-60
2023/05/10 21:13:53;;;;;;;8.82;2.60;;;;;;;13.68;66.20;99647.16;10422549;28;20124;-60
2023/05/10 21:18:55;;;;;;;11.43;3.42;;;;;;;13.63;66.14;99641.44;10423610;28;20076;-60
2023/05/10 21:23:57;;;;;;;27.90;4.40;;;;;;;13.58;66.24;99640.94;10420341;28;20467;-60
2023/05/10 21:28:59;;;;;;;15.40;3.75;;;;;;;13.43;66.61;99632.44;10418259;28;20041;-60
2023/05/10 21:34:01;;;;;;;7.30;2.78;;;;;;;13.35;66.53;99637.41;10424393;28;20075;-60
2023/05/10 21:39:03;;;;;;;83.97;4.63;;;;;;;13.25;67.45;99644.31;10368302;28;20082;-60
2023/05/10 21:44:05;;;;;;;11.20;3.13;;;;;;;13.18;67.72;99642.25;10406384;28;20475;-60
2023/05/10 21:49:07;;;;;;;8.02;3.00;;;;;;;13.12;67.80;99638.31;10442564;28;20037;-61
2023/05/10 21:54:08;;;;;;;5.82;2.60;;;;;;;12.97;67.91;99652.56;10417938;28;20482;-60
2023/05/10 21:59:10;;;;;;;6.45;2.80;;;;;;;12.91;67.65;99650.41;10424789;28;20132;-60
2023/05/10 22:04:12;;;;;;;9.98;3.78;;;;;;;12.93;67.46;99656.38;10423754;28;20110;-60
2023/05/10 22:09:14;;;;;;;5.80;2.75;;;;;;;12.85;68.29;99661.34;10445419;28;20455;-60
2023/05/10 22:14:16;;;;;;;5.20;2.72;;;;;;;12.91;67.90;99664.38;10419795;28;20413;-61
2023/05/10 22:19:17;;;;;;;3.65;2.20;;;;;;;12.94;68.11;99663.31;10441046;28;20095;-61
2023/05/10 22:24:20;;;;;;;7.00;2.10;;;;;;;13.08;67.54;99667.53;10422587;28;20128;-60
2023/05/10 22:29:22;;;;;;;3.60;1.90;;;;;;;13.12;67.65;99664.56;10388025;28;20117;-60
2023/05/10 22:34:24;;;;;;;6.97;2.20;;;;;;;13.22;67.16;99664.72;10424139;28;20076;-60
2023/05/10 22:39:26;;;;;;;3.47;1.90;;;;;;;13.17;67.29;99666.84;10446397;28;20144;-60
2023/05/10 22:44:28;;;;;;;4.63;1.90;;;;;;;13.19;66.89;99670.22;10427345;28;20049;-60
2023/05/10 22:49:31;;;;;;;4.50;1.90;;;;;;;13.12;66.69;99664.56;10437075;28;20045;-60
2023/05/10 22:54:33;;;;;;;5.40;2.03;;;;;;;13.06;66.53;99664.19;10405529;28;20042;-60
2023/05/10 22:59:36;;;;;;;4.78;1.60;;;;;;;12.89;66.71;99674.13;10427655;28;20488;-60
2023/05/10 23:04:38;;;;;;;5.90;1.88;;;;;;;12.76;66.88;99677.78;10413948;28;20053;-61
2023/05/10 23:09:40;;;;;;;5.53;1.90;;;;;;;12.82;66.82;99680.78;10435821;28;20463;-60
2023/05/10 23:14:44;;;;;;;5.82;1.70;;;;;;;12.76;66.70;99681.22;10408298;28;20041;-60
2023/05/10 23:19:46;;;;;;;3.45;1.77;;;;;;;12.79;66.48;99678.38;10405927;28;20053;-60
2023/05/10 23:24:47;;;;;;;6.60;1.83;;;;;;;12.91;66.31;99682.72;10418944;28;20059;-60
2023/05/10 23:29:54;;;;;;;3.72;1.60;;;;;;;12.98;66.29;99694.44;10431343;28;20091;-60